logo
App data

I Expect You To Die

Play as a secret agent armed with telekinetic abilities on a mission to stop Zoraxis, a nefarious global weapons and pharmaceutical corporation.
Store | Hub | SteamDB | Site
Developer: Schell Games Publisher: Schell Games
Genre: Adventure
Languages: English
Tags: VR (135), Adventure (130), Puzzle (130), Funny (127), Cold War (123), Singleplayer (119), First-Person (114), Simulation (106), Comedy (102), Retro (99), Stylized (95), Immersive (89), Soundtrack (83), Indie (51), Short (47), Action (44), Difficult (37), Great Soundtrack (34), Strategy (33), Open World (30)
Category: Single-player, Steam Achievements, Steam Trading Cards
Release date: Apr 25, 2017
Price: $24.99
Old userscore: 94% Metascore: 77%
Owners: 100,000 .. 200,000
Followers: 7,022
Peak concurrent players yesterday: 23
YouTube stats: 1,184 views and 93 comments for top 50 videos uploaded last week, 8 new videos uploaded yesterday.
Playtime in the last 2 weeks: 02:54 (average) 02:54 (median)
Playtime total: 02:53 (average) 04:07 (median)

Steam Spy is still in beta, so expect major bugs.

Owners data:

Access restricted.

This feature is only available to users with special access rights. Sorry.

If you want to proceed, you need to register or log in first and then back Steam Spy on Patreon. Look for Indie or Pro pledge.

Don't forget to use the same email as on Steam Spy!

If you've recently backed Steam Spy on Patreon, please note, that it might take around 15 minutes for your access rights to sync. In most cases you'll need to re-login on Steam Spy too.

Audience in 2 weeks:

Access restricted.

This feature is only available to users with special access rights. Sorry.

If you want to proceed, you need to register or log in first and then back Steam Spy on Patreon. Look for Indie or Pro pledge.

Don't forget to use the same email as on Steam Spy!

If you've recently backed Steam Spy on Patreon, please note, that it might take around 15 minutes for your access rights to sync. In most cases you'll need to re-login on Steam Spy too.

Peak daily concurrent players:

CCU data courtesy of SteamDB. Used with permission.

Hourly concurrent players:

Daily Twitch stats:

Hourly Twitch stats:

Followers over time

Access restricted.

This feature is only available to users with special access rights. Sorry.

If you want to proceed, you need to register or log in first and then back Steam Spy on Patreon. Look for Indie or Pro pledge.

Don't forget to use the same email as on Steam Spy!

If you've recently backed Steam Spy on Patreon, please note, that it might take around 15 minutes for your access rights to sync. In most cases you'll need to re-login on Steam Spy too.

Views for top 50 videos on YouTube for this game:

Games similar to this one:

# Game Release date
Price
Score rank
(Userscore / Metascore)
Owners
Players
Playtime (Median)
1 Grapple Mar 9, 2015 $6.99N/A (N/A)20,000 .. 50,0000%00:00 (00:00)
2 Melting Hearts: Our Love Will Grow 2 Apr 29, 2016 N/AN/A (N/A)20,000 .. 50,0000%00:00 (00:00)
3 MOAI 2: Path to Another World Jul 16, 2015 $7.99N/A (N/A)0 .. 20,0000%00:00 (00:00)
4 Letter Quest: Grimm's Journey Nov 20, 2014 $7.99N/A (N/A/73%)100,000 .. 200,0000%00:00 (00:00)
5 Farm Frenzy 4 Apr 29, 2014 $6.99N/A (N/A)20,000 .. 50,0000%00:00 (00:00)
6 Metal Drift Oct 22, 2009 $9.99N/A (N/A)20,000 .. 50,0000%00:00 (00:00)
7 Lift It Jan 20, 2017 $4.99N/A (N/A)50,000 .. 100,0000%00:00 (00:00)
8 Streets of Chaos Jan 23, 2015 N/AN/A (N/A)100,000 .. 200,0000%00:00 (00:00)
9 Metrocide Oct 20, 2014 $12.99N/A (N/A/68%)50,000 .. 100,0000%00:00 (00:00)
10 Tribloos 2 Jan 30, 2014 $4.99N/A (N/A)20,000 .. 50,0000%00:00 (00:00)
11 Prehistoric Tales May 26, 2016 $2.99N/A (N/A)0 .. 20,0000%00:00 (00:00)
12 Botology Jun 24, 2015 $0.99N/A (N/A)50,000 .. 100,0000%00:00 (00:00)
13 Thief Town Dec 4, 2014 $7.99N/A (N/A)20,000 .. 50,0000%00:00 (00:00)
14 Spy Chameleon - RGB Agent Jun 11, 2014 $4.99N/A (N/A)20,000 .. 50,0000%00:00 (00:00)
15 Luxor: 5th Passage Jan 25, 2011 $9.99N/A (N/A)20,000 .. 50,0000%00:00 (00:00)
16 Cibele Nov 2, 2015 $8.99N/A (N/A/71%)50,000 .. 100,0000%00:00 (00:00)
17 Avalanche 2: Super Avalanche Jun 11, 2015 $4.99N/A (N/A)50,000 .. 100,0000%00:00 (00:00)
18 REVOLVER360 RE:ACTOR Oct 24, 2014 $9.99N/A (N/A)50,000 .. 100,0000%00:00 (00:00)
19 About Love, Hate and the other ones Dec 12, 2014 $6.99N/A (N/A)100,000 .. 200,0000%00:00 (00:00)
20 The Dolls: Reborn May 25, 2016 $4.99N/A (N/A)20,000 .. 50,0000%00:00 (00:00)
21 Red Goblin: Cursed Forest May 15, 2015 $4.99N/A (N/A)0 .. 20,0000%00:00 (00:00)
22 Shutshimi Aug 25, 2015 $4.99N/A (N/A)50,000 .. 100,0000%00:00 (00:00)
23 Ichi Jun 12, 2014 $4.99N/A (N/A)100,000 .. 200,0000%00:00 (00:00)
24 Glowfish Sep 30, 2011 $9.99N/A (N/A)0 .. 20,0000%00:00 (00:00)
25 Pro Gamer Manager Apr 28, 2016 $9.99N/A (N/A)50,000 .. 100,0000%00:00 (00:00)
26 Stephen's Sausage Roll Apr 17, 2016 $29.99N/A (N/A/90%)50,000 .. 100,0000%00:00 (00:00)
27 Jamsouls Aug 21, 2014 $3.99N/A (N/A)0 .. 20,0000%00:00 (00:00)
28 On Rusty Trails Jun 13, 2016 $12.99N/A (N/A/77%)20,000 .. 50,0000%00:00 (00:00)
29 Cold Waters Jun 5, 2017 $39.99N/A (N/A)50,000 .. 100,0000%00:00 (00:00)
30 Power of Love Jul 21, 2015 $0.99N/A (N/A)20,000 .. 50,0000%00:00 (00:00)
31 Square Heroes Apr 9, 2015 $3.99N/A (N/A)20,000 .. 50,0000%00:00 (00:00)
32 The Blue Flamingo Nov 18, 2014 $4.99N/A (N/A/55%)100,000 .. 200,0000%00:00 (00:00)
33 Blocks That Matter Aug 19, 2011 $4.99N/A (N/A/72%)200,000 .. 500,0000%00:00 (00:00)
34 Narcissu 10th Anniversary Anthology Project Jan 27, 2016 $2.99N/A (N/A)50,000 .. 100,0000%00:00 (00:00)
35 Pester Jan 25, 2013 $0.99N/A (N/A)100,000 .. 200,0000%00:00 (00:00)
36 room13 Jan 13, 2017 $7.99N/A (N/A)20,000 .. 50,0000%00:00 (00:00)
37 Strata May 29, 2014 $7.99N/A (N/A)20,000 .. 50,0000%00:00 (00:00)
38 Machine Hunt May 15, 2017 $2.99N/A (N/A)50,000 .. 100,0000%00:00 (00:00)
39 Fingered Aug 18, 2015 $1.87N/A (N/A)50,000 .. 100,0000%00:00 (00:00)
40 Steam and Metal Feb 9, 2015 $4.99N/A (N/A)0 .. 20,0000%00:00 (00:00)
41 Cyto Jul 10, 2014 $3.99N/A (N/A)20,000 .. 50,0000%00:00 (00:00)
42 Puzzler World 2 Oct 24, 2011 $4.99N/A (N/A)20,000 .. 50,0000%00:00 (00:00)
43 Sophie's Curse Mar 16, 2016 $4.99N/A (N/A)50,000 .. 100,0000%00:00 (00:00)
44 Drizzlepath Mar 12, 2015 $0.99N/A (N/A)20,000 .. 50,0000%00:00 (00:00)
45 Bloop Reloaded Feb 6, 2015 FreeN/A (N/A)100,000 .. 200,0000%00:00 (00:00)
46 Sokobond Jul 21, 2014 $9.99N/A (N/A/82%)20,000 .. 50,0000%00:00 (00:00)
47 Masky Dec 16, 2016 $0.99N/A (N/A)50,000 .. 100,0000%00:00 (00:00)
48 Painters Guild Sep 1, 2015 $9.99N/A (N/A)20,000 .. 50,0000%00:00 (00:00)
49 Marble Duel: Sphere-Matching Tactical Fantasy Nov 12, 2015 $14.99N/A (N/A)50,000 .. 100,0000%00:00 (00:00)
50 Hidden in Plain Sight Jul 16, 2014 $5.99N/A (N/A)20,000 .. 50,0000%00:00 (00:00)
51 Luxor Evolved Mar 1, 2012 $9.99N/A (N/A)50,000 .. 100,0000%00:00 (00:00)
52 A grande bagunça espacial - The big space mess Apr 5, 2016 $0.99N/A (N/A)200,000 .. 500,0000%00:00 (00:00)
53 The Reject Demon: Toko Chapter 0 — Prelude May 8, 2015 $4.99N/A (N/A)20,000 .. 50,0000%00:00 (00:00)
54 A Good Snowman Is Hard To Build Feb 25, 2015 $9.99N/A (N/A)50,000 .. 100,0000%00:00 (00:00)
55 Pressured Jul 18, 2014 $2.99N/A (N/A)200,000 .. 500,0000%00:00 (00:00)
56 Brother Wings Jan 10, 2017 $0.99N/A (N/A)20,000 .. 50,0000%00:00 (00:00)
57 In Between Aug 21, 2015 $11.99N/A (N/A/68%)50,000 .. 100,0000%00:00 (00:00)
58 Castle Jan 7, 2015 $4.99N/A (N/A)50,000 .. 100,0000%00:00 (00:00)
59 Point Perfect Jul 17, 2014 $4.99N/A (N/A)50,000 .. 100,0000%00:00 (00:00)
60 Divide By Sheep Jul 2, 2015 $4.99N/A (N/A/83%)2,000,000 .. 5,000,0000%00:00 (00:00)
61 Party Saboteurs: After Party Oct 20, 2016 $9.99N/A (N/A)0 .. 20,0000%00:00 (00:00)
62 in Space Apr 27, 2015 $0.99N/A (N/A)0 .. 20,0000%00:00 (00:00)
63 Quantum Rush Champions Dec 4, 2014 $9.99N/A (N/A)20,000 .. 50,0000%00:00 (00:00)
64 Automation - The Car Company Tycoon Game Mar 12, 2015 $29.99N/A (N/A)200,000 .. 500,00012.5%00:16 (00:05)
65 The guard of dungeon Mar 7, 2017 $6.99N/A (N/A)20,000 .. 50,0000%00:00 (00:00)
66 Robot vs Birds Zombies Jul 23, 2015 $0.99N/A (N/A)500,000 .. 1,000,0000%00:00 (00:00)
67 Unhack Jan 9, 2015 $3.99N/A (N/A)20,000 .. 50,0000%00:00 (00:00)
68 Super Lemonade Factory Jul 9, 2014 $0.99N/A (N/A)0 .. 20,0000%00:00 (00:00)
69 Aqua Kitty - Milk Mine Defender Feb 3, 2014 $6.99N/A (N/A)20,000 .. 50,0000%00:00 (00:00)
70 Burst Mar 14, 2016 N/AN/A (N/A)20,000 .. 50,0000%00:00 (00:00)
71 Farm Frenzy: Hurricane Season Jul 3, 2015 $6.99N/A (N/A)0 .. 20,0000%00:00 (00:00)
72 This Starry Midnight We Make Jun 1, 2015 $9.99N/A (N/A)0 .. 20,0000%00:00 (00:00)
73 Swipecart May 8, 2014 $2.99N/A (N/A)50,000 .. 100,0000%00:00 (00:00)
74 AaAaAA!!! - A Reckless Disregard for Gravity Sep 3, 2009 $9.99N/A (N/A/81%)100,000 .. 200,0000%00:00 (00:00)
75 Arclight Cascade Aug 25, 2015 FreeN/A (N/A)0 .. 20,0000%00:00 (00:00)
76 Pixel Puzzles 2: Birds Feb 20, 2015 $4.99N/A (N/A)200,000 .. 500,0000%00:00 (00:00)
77 LogiGun Jul 22, 2014 $4.99N/A (N/A)0 .. 20,0000%00:00 (00:00)

Tags over time:

Access restricted.

This feature is only available to users with special access rights. Sorry.

If you want to proceed, you need to register or log in first and then back Steam Spy on Patreon. Look for Indie or Pro pledge.

Don't forget to use the same email as on Steam Spy!

If you've recently backed Steam Spy on Patreon, please note, that it might take around 15 minutes for your access rights to sync. In most cases you'll need to re-login on Steam Spy too.

Owners of this game also own:

Access restricted.

This feature is only available to users with special access rights. Sorry.

If you want to proceed, you need to register or log in first and then back Steam Spy on Patreon. Look for Indie or Pro pledge.

Don't forget to use the same email as on Steam Spy!

If you've recently backed Steam Spy on Patreon, please note, that it might take around 15 minutes for your access rights to sync. In most cases you'll need to re-login on Steam Spy too.

Playtime distribution:

Access restricted.

This feature is only available to users with special access rights. Sorry.

If you want to proceed, you need to register or log in first and then back Steam Spy on Patreon. Look for Indie or Pro pledge.

Don't forget to use the same email as on Steam Spy!

If you've recently backed Steam Spy on Patreon, please note, that it might take around 15 minutes for your access rights to sync. In most cases you'll need to re-login on Steam Spy too.

Playtime (2 weeks):

Access restricted.

This feature is only available to users with special access rights. Sorry.

If you want to proceed, you need to register or log in first and then back Steam Spy on Patreon. Look for Indie or Pro pledge.

Don't forget to use the same email as on Steam Spy!

If you've recently backed Steam Spy on Patreon, please note, that it might take around 15 minutes for your access rights to sync. In most cases you'll need to re-login on Steam Spy too.

User reviews:

Login required.

Please register or log in to see this information.